sensor_id;sensor_type;location;lat;lon;timestamp;pressure;altitude;pressure_sealevel;temperature;humidity
6144;BME280;3103;49.492;8.474;2022-08-19T00:02:01;100137.53;;;23.89;55.95
6144;BME280;3103;49.492;8.474;2022-08-19T00:04:33;100146.50;;;23.98;55.89
6144;BME280;3103;49.492;8.474;2022-08-19T00:07:05;100140.47;;;24.05;55.54
6144;BME280;3103;49.492;8.474;2022-08-19T00:09:32;100129.50;;;24.05;55.16
6144;BME280;3103;49.492;8.474;2022-08-19T00:11:59;100122.84;;;24.06;54.93
6144;BME280;3103;49.492;8.474;2022-08-19T00:14:28;100108.91;;;23.98;54.99
6144;BME280;3103;49.492;8.474;2022-08-19T00:16:57;100106.09;;;24.07;54.72
6144;BME280;3103;49.492;8.474;2022-08-19T00:19:24;100093.47;;;24.06;55.04
6144;BME280;3103;49.492;8.474;2022-08-19T00:21:51;100097.13;;;23.98;54.98
6144;BME280;3103;49.492;8.474;2022-08-19T00:24:18;100086.91;;;23.86;55.54
6144;BME280;3103;49.492;8.474;2022-08-19T00:26:46;100085.53;;;23.92;55.34
6144;BME280;3103;49.492;8.474;2022-08-19T00:29:16;100088.28;;;23.92;55.49
6144;BME280;3103;49.492;8.474;2022-08-19T00:31:44;100098.78;;;23.90;55.58
6144;BME280;3103;49.492;8.474;2022-08-19T00:34:11;100106.69;;;23.92;55.56
6144;BME280;3103;49.492;8.474;2022-08-19T00:36:39;100097.22;;;23.68;56.17
6144;BME280;3103;49.492;8.474;2022-08-19T00:39:06;100096.31;;;23.77;55.81
6144;BME280;3103;49.492;8.474;2022-08-19T00:41:33;100091.78;;;23.81;55.59
6144;BME280;3103;49.492;8.474;2022-08-19T00:46:39;100095.41;;;23.73;56.08
6144;BME280;3103;49.492;8.474;2022-08-19T00:49:36;100087.91;;;23.61;56.48
6144;BME280;3103;49.492;8.474;2022-08-19T00:52:33;100089.19;;;23.63;56.38
6144;BME280;3103;49.492;8.474;2022-08-19T00:55:02;100082.09;;;23.62;56.36
6144;BME280;3103;49.492;8.474;2022-08-19T00:57:42;100078.94;;;23.73;56.16
6144;BME280;3103;49.492;8.474;2022-08-19T01:00:16;100081.28;;;23.62;56.62
6144;BME280;3103;49.492;8.474;2022-08-19T01:02:43;100084.09;;;23.53;56.71
6144;BME280;3103;49.492;8.474;2022-08-19T01:05:14;100081.69;;;23.52;56.86
6144;BME280;3103;49.492;8.474;2022-08-19T01:07:42;100093.44;;;23.52;56.64
6144;BME280;3103;49.492;8.474;2022-08-19T01:10:12;100093.81;;;23.72;56.10
6144;BME280;3103;49.492;8.474;2022-08-19T01:12:40;100084.25;;;23.48;56.79
6144;BME280;3103;49.492;8.474;2022-08-19T01:15:10;100071.34;;;23.49;56.99
6144;BME280;3103;49.492;8.474;2022-08-19T01:17:39;100066.84;;;23.53;56.63
6144;BME280;3103;49.492;8.474;2022-08-19T01:20:11;100062.78;;;23.50;56.93
6144;BME280;3103;49.492;8.474;2022-08-19T01:22:46;100073.22;;;23.65;56.43
6144;BME280;3103;49.492;8.474;2022-08-19T01:25:15;100074.59;;;23.51;56.64
6144;BME280;3103;49.492;8.474;2022-08-19T01:27:45;100087.63;;;23.54;56.69
6144;BME280;3103;49.492;8.474;2022-08-19T01:30:28;100090.22;;;23.50;56.67
6144;BME280;3103;49.492;8.474;2022-08-19T01:32:56;100091.16;;;23.54;56.58
6144;BME280;3103;49.492;8.474;2022-08-19T01:35:24;100093.91;;;23.54;56.70
6144;BME280;3103;49.492;8.474;2022-08-19T01:37:58;100095.34;;;23.60;56.39
6144;BME280;3103;49.492;8.474;2022-08-19T01:40:29;100087.56;;;23.62;56.25
6144;BME280;3103;49.492;8.474;2022-08-19T01:42:57;100085.03;;;23.57;56.27
6144;BME280;3103;49.492;8.474;2022-08-19T01:45:26;100094.09;;;23.49;56.47
6144;BME280;3103;49.492;8.474;2022-08-19T01:47:53;100097.50;;;23.46;56.73
6144;BME280;3103;49.492;8.474;2022-08-19T01:50:30;100101.84;;;23.47;56.54
6144;BME280;3103;49.492;8.474;2022-08-19T01:52:57;100093.72;;;23.38;56.77
6144;BME280;3103;49.492;8.474;2022-08-19T01:55:32;100091.44;;;23.40;56.76
6144;BME280;3103;49.492;8.474;2022-08-19T01:58:02;100085.81;;;23.37;56.75
6144;BME280;3103;49.492;8.474;2022-08-19T02:00:31;100090.09;;;23.47;56.61
6144;BME280;3103;49.492;8.474;2022-08-19T02:02:58;100084.09;;;23.53;56.29
6144;BME280;3103;49.492;8.474;2022-08-19T02:05:27;100086.34;;;23.30;56.95
6144;BME280;3103;49.492;8.474;2022-08-19T02:07:56;100091.94;;;23.34;56.96
6144;BME280;3103;49.492;8.474;2022-08-19T02:10:23;100084.72;;;23.29;57.09
6144;BME280;3103;49.492;8.474;2022-08-19T02:12:50;100088.94;;;23.27;57.52
6144;BME280;3103;49.492;8.474;2022-08-19T02:15:19;100088.66;;;23.20;57.54
6144;BME280;3103;49.492;8.474;2022-08-19T02:17:47;100089.06;;;23.30;57.28
6144;BME280;3103;49.492;8.474;2022-08-19T02:20:14;100097.88;;;23.15;57.63
6144;BME280;3103;49.492;8.474;2022-08-19T02:22:42;100091.72;;;23.18;57.71
6144;BME280;3103;49.492;8.474;2022-08-19T02:25:13;100088.59;;;23.28;57.46
6144;BME280;3103;49.492;8.474;2022-08-19T02:27:41;100081.66;;;23.31;57.42
6144;BME280;3103;49.492;8.474;2022-08-19T02:30:12;100090.97;;;23.38;57.19
6144;BME280;3103;49.492;8.474;2022-08-19T02:32:40;100099.31;;;23.42;57.19
6144;BME280;3103;49.492;8.474;2022-08-19T02:35:19;100108.47;;;23.46;56.88
6144;BME280;3103;49.492;8.474;2022-08-19T02:37:46;100110.28;;;23.42;57.20
6144;BME280;3103;49.492;8.474;2022-08-19T02:40:32;100104.69;;;23.38;57.29
6144;BME280;3103;49.492;8.474;2022-08-19T02:43:03;100101.97;;;23.30;57.39
6144;BME280;3103;49.492;8.474;2022-08-19T02:45:33;100106.13;;;23.36;57.08
6144;BME280;3103;49.492;8.474;2022-08-19T02:48:02;100102.06;;;23.42;56.86
6144;BME280;3103;49.492;8.474;2022-08-19T02:50:39;100099.66;;;23.40;56.90
6144;BME280;3103;49.492;8.474;2022-08-19T02:53:19;100111.88;;;23.43;56.86
6144;BME280;3103;49.492;8.474;2022-08-19T02:55:46;100102.19;;;23.25;57.44
6144;BME280;3103;49.492;8.474;2022-08-19T02:58:14;100105.53;;;23.30;57.26
6144;BME280;3103;49.492;8.474;2022-08-19T03:00:59;100106.66;;;23.29;57.44
6144;BME280;3103;49.492;8.474;2022-08-19T03:03:26;100109.19;;;23.34;57.20
6144;BME280;3103;49.492;8.474;2022-08-19T03:06:10;100101.84;;;23.26;57.56
6144;BME280;3103;49.492;8.474;2022-08-19T03:08:41;100100.09;;;23.22;57.76
6144;BME280;3103;49.492;8.474;2022-08-19T03:11:18;100092.94;;;23.08;58.08
6144;BME280;3103;49.492;8.474;2022-08-19T03:13:46;100091.47;;;23.32;57.52
6144;BME280;3103;49.492;8.474;2022-08-19T03:16:16;100089.78;;;23.19;57.77
6144;BME280;3103;49.492;8.474;2022-08-19T03:18:42;100089.19;;;23.13;57.99
6144;BME280;3103;49.492;8.474;2022-08-19T03:21:15;100084.84;;;23.12;58.37
6144;BME280;3103;49.492;8.474;2022-08-19T03:23:42;100084.41;;;23.01;58.49
6144;BME280;3103;49.492;8.474;2022-08-19T03:26:09;100088.31;;;23.21;57.86
6144;BME280;3103;49.492;8.474;2022-08-19T03:28:43;100092.44;;;23.06;58.35
6144;BME280;3103;49.492;8.474;2022-08-19T03:31:24;100102.53;;;23.23;57.69
6144;BME280;3103;49.492;8.474;2022-08-19T03:34:13;100102.69;;;23.18;57.97
6144;BME280;3103;49.492;8.474;2022-08-19T03:36:40;100099.72;;;23.02;58.43
6144;BME280;3103;49.492;8.474;2022-08-19T03:39:09;100092.16;;;22.99;58.56
6144;BME280;3103;49.492;8.474;2022-08-19T03:41:39;100102.47;;;23.02;58.36
6144;BME280;3103;49.492;8.474;2022-08-19T03:44:17;100103.13;;;22.99;58.35
6144;BME280;3103;49.492;8.474;2022-08-19T03:46:51;100099.25;;;23.00;58.43
6144;BME280;3103;49.492;8.474;2022-08-19T03:49:19;100105.53;;;23.01;58.27
6144;BME280;3103;49.492;8.474;2022-08-19T03:51:48;100100.56;;;22.94;58.47
6144;BME280;3103;49.492;8.474;2022-08-19T03:54:18;100116.16;;;23.02;58.32
6144;BME280;3103;49.492;8.474;2022-08-19T03:56:47;100103.41;;;23.06;58.03
6144;BME280;3103;49.492;8.474;2022-08-19T03:59:22;100108.50;;;22.87;58.49
6144;BME280;3103;49.492;8.474;2022-08-19T04:01:49;100116.53;;;22.92;58.50
6144;BME280;3103;49.492;8.474;2022-08-19T04:04:16;100118.78;;;22.90;58.42
6144;BME280;3103;49.492;8.474;2022-08-19T04:06:45;100112.66;;;22.93;58.15
6144;BME280;3103;49.492;8.474;2022-08-19T04:09:13;100110.34;;;23.04;58.02
6144;BME280;3103;49.492;8.474;2022-08-19T04:11:44;100117.44;;;23.05;57.86
6144;BME280;3103;49.492;8.474;2022-08-19T04:14:17;100116.72;;;22.87;58.38
6144;BME280;3103;49.492;8.474;2022-08-19T04:16:46;100121.16;;;23.00;57.82
6144;BME280;3103;49.492;8.474;2022-08-19T04:19:14;100116.69;;;22.96;58.03
6144;BME280;3103;49.492;8.474;2022-08-19T04:21:43;100120.22;;;22.96;58.10
6144;BME280;3103;49.492;8.474;2022-08-19T04:24:11;100114.25;;;22.94;58.12
6144;BME280;3103;49.492;8.474;2022-08-19T04:26:38;100112.38;;;22.86;58.55
6144;BME280;3103;49.492;8.474;2022-08-19T04:29:15;100110.09;;;22.88;58.53
6144;BME280;3103;49.492;8.474;2022-08-19T04:31:43;100106.22;;;22.89;58.43
6144;BME280;3103;49.492;8.474;2022-08-19T04:34:13;100110.09;;;22.79;58.77
6144;BME280;3103;49.492;8.474;2022-08-19T04:36:42;100111.44;;;22.73;59.10
6144;BME280;3103;49.492;8.474;2022-08-19T04:39:14;100113.50;;;22.85;58.88
6144;BME280;3103;49.492;8.474;2022-08-19T04:41:42;100114.59;;;22.93;58.81
6144;BME280;3103;49.492;8.474;2022-08-19T04:44:28;100111.03;;;22.92;58.80
6144;BME280;3103;49.492;8.474;2022-08-19T04:46:59;100111.50;;;22.94;58.81
6144;BME280;3103;49.492;8.474;2022-08-19T04:49:27;100104.44;;;22.93;58.83
6144;BME280;3103;49.492;8.474;2022-08-19T04:51:54;100108.47;;;22.96;58.80
6144;BME280;3103;49.492;8.474;2022-08-19T04:54:23;100104.41;;;23.02;58.71
6144;BME280;3103;49.492;8.474;2022-08-19T04:57:08;100116.72;;;23.17;58.19
6144;BME280;3103;49.492;8.474;2022-08-19T04:59:37;100116.25;;;23.15;58.16
6144;BME280;3103;49.492;8.474;2022-08-19T05:02:04;100122.53;;;23.15;58.28
6144;BME280;3103;49.492;8.474;2022-08-19T05:04:31;100121.16;;;23.00;58.48
6144;BME280;3103;49.492;8.474;2022-08-19T05:06:59;100124.84;;;23.04;58.33
6144;BME280;3103;49.492;8.474;2022-08-19T05:09:29;100122.91;;;23.05;58.65
6144;BME280;3103;49.492;8.474;2022-08-19T05:12:16;100116.06;;;23.20;57.95
6144;BME280;3103;49.492;8.474;2022-08-19T05:14:43;100115.50;;;23.05;58.29
6144;BME280;3103;49.492;8.474;2022-08-19T05:17:11;100123.34;;;23.16;58.89
6144;BME280;3103;49.492;8.474;2022-08-19T05:19:58;100129.34;;;23.09;58.66
6144;BME280;3103;49.492;8.474;2022-08-19T05:22:45;100138.44;;;23.22;58.37
6144;BME280;3103;49.492;8.474;2022-08-19T05:25:16;100135.53;;;23.27;58.51
6144;BME280;3103;49.492;8.474;2022-08-19T05:27:45;100138.06;;;23.32;58.58
6144;BME280;3103;49.492;8.474;2022-08-19T05:30:12;100137.56;;;23.38;58.57
6144;BME280;3103;49.492;8.474;2022-08-19T05:32:40;100141.56;;;23.41;58.38
6144;BME280;3103;49.492;8.474;2022-08-19T05:35:07;100141.28;;;23.34;58.67
6144;BME280;3103;49.492;8.474;2022-08-19T05:37:34;100144.69;;;23.31;58.17
6144;BME280;3103;49.492;8.474;2022-08-19T05:40:02;100148.38;;;23.35;58.14
6144;BME280;3103;49.492;8.474;2022-08-19T05:42:29;100149.50;;;23.34;57.92
6144;BME280;3103;49.492;8.474;2022-08-19T05:44:58;100149.50;;;23.34;58.20
6144;BME280;3103;49.492;8.474;2022-08-19T05:47:24;100158.28;;;23.48;58.33
6144;BME280;3103;49.492;8.474;2022-08-19T05:49:51;100157.81;;;23.46;57.81
6144;BME280;3103;49.492;8.474;2022-08-19T05:52:18;100166.75;;;23.64;57.39
6144;BME280;3103;49.492;8.474;2022-08-19T05:54:51;100172.75;;;23.66;57.52
6144;BME280;3103;49.492;8.474;2022-08-19T05:57:19;100190.63;;;23.63;57.02
6144;BME280;3103;49.492;8.474;2022-08-19T05:59:46;100186.81;;;23.56;57.27
6144;BME280;3103;49.492;8.474;2022-08-19T06:02:19;100194.94;;;23.73;56.84
6144;BME280;3103;49.492;8.474;2022-08-19T06:04:45;100198.88;;;23.63;56.88
6144;BME280;3103;49.492;8.474;2022-08-19T06:07:12;100196.47;;;23.62;56.80
6144;BME280;3103;49.492;8.474;2022-08-19T06:09:40;100199.56;;;23.52;57.24
6144;BME280;3103;49.492;8.474;2022-08-19T06:12:09;100199.88;;;23.50;57.41
6144;BME280;3103;49.492;8.474;2022-08-19T06:14:36;100205.69;;;23.57;57.30
6144;BME280;3103;49.492;8.474;2022-08-19T06:17:07;100212.19;;;23.44;57.66
6144;BME280;3103;49.492;8.474;2022-08-19T06:19:35;100219.91;;;23.51;57.25
6144;BME280;3103;49.492;8.474;2022-08-19T06:22:07;100225.69;;;23.58;56.80
6144;BME280;3103;49.492;8.474;2022-08-19T06:24:34;100222.69;;;23.72;56.27
6144;BME280;3103;49.492;8.474;2022-08-19T06:27:04;100218.25;;;23.58;56.82
6144;BME280;3103;49.492;8.474;2022-08-19T06:29:32;100214.06;;;23.61;56.65
6144;BME280;3103;49.492;8.474;2022-08-19T06:32:01;100215.53;;;23.58;56.59
6144;BME280;3103;49.492;8.474;2022-08-19T06:34:31;100217.63;;;23.53;56.98
6144;BME280;3103;49.492;8.474;2022-08-19T06:37:00;100224.72;;;23.54;56.86
6144;BME280;3103;49.492;8.474;2022-08-19T06:39:33;100226.97;;;23.60;56.86
6144;BME280;3103;49.492;8.474;2022-08-19T06:42:01;100229.31;;;23.71;56.48
6144;BME280;3103;49.492;8.474;2022-08-19T06:44:30;100226.03;;;23.77;56.10
6144;BME280;3103;49.492;8.474;2022-08-19T06:47:12;100223.63;;;23.76;56.20
6144;BME280;3103;49.492;8.474;2022-08-19T06:49:41;100224.66;;;23.71;56.28
6144;BME280;3103;49.492;8.474;2022-08-19T06:52:09;100222.84;;;23.75;56.36
6144;BME280;3103;49.492;8.474;2022-08-19T06:54:41;100233.00;;;23.75;56.42
6144;BME280;3103;49.492;8.474;2022-08-19T06:57:23;100238.22;;;23.67;57.05
6144;BME280;3103;49.492;8.474;2022-08-19T06:59:50;100243.97;;;23.75;56.56
6144;BME280;3103;49.492;8.474;2022-08-19T07:02:18;100248.41;;;23.88;56.14
6144;BME280;3103;49.492;8.474;2022-08-19T07:04:45;100239.41;;;23.79;56.37
6144;BME280;3103;49.492;8.474;2022-08-19T07:07:14;100246.84;;;23.78;56.39
6144;BME280;3103;49.492;8.474;2022-08-19T07:09:47;100242.91;;;23.67;56.49
6144;BME280;3103;49.492;8.474;2022-08-19T07:12:24;100233.53;;;23.68;56.67
6144;BME280;3103;49.492;8.474;2022-08-19T07:14:52;100228.38;;;23.66;56.68
6144;BME280;3103;49.492;8.474;2022-08-19T07:17:20;100231.59;;;23.68;56.80
6144;BME280;3103;49.492;8.474;2022-08-19T07:19:47;100230.25;;;23.75;56.48
6144;BME280;3103;49.492;8.474;2022-08-19T07:22:14;100241.69;;;23.77;56.64
6144;BME280;3103;49.492;8.474;2022-08-19T07:24:43;100236.16;;;23.85;56.55
6144;BME280;3103;49.492;8.474;2022-08-19T07:27:17;100241.75;;;23.97;56.23
6144;BME280;3103;49.492;8.474;2022-08-19T07:29:53;100241.47;;;24.11;55.92
6144;BME280;3103;49.492;8.474;2022-08-19T07:32:25;100242.06;;;23.96;56.24
6144;BME280;3103;49.492;8.474;2022-08-19T07:34:58;100247.31;;;24.10;55.70
6144;BME280;3103;49.492;8.474;2022-08-19T07:37:28;100247.91;;;24.15;55.61
6144;BME280;3103;49.492;8.474;2022-08-19T07:40:00;100245.75;;;24.21;55.46
6144;BME280;3103;49.492;8.474;2022-08-19T07:42:28;100248.81;;;24.19;55.21
6144;BME280;3103;49.492;8.474;2022-08-19T07:44:57;100244.47;;;24.18;55.40
6144;BME280;3103;49.492;8.474;2022-08-19T07:47:24;100248.25;;;24.35;54.69
6144;BME280;3103;49.492;8.474;2022-08-19T07:50:11;100242.81;;;24.47;54.18
6144;BME280;3103;49.492;8.474;2022-08-19T07:52:39;100253.38;;;24.57;53.87
6144;BME280;3103;49.492;8.474;2022-08-19T07:55:09;100247.72;;;24.74;53.63
6144;BME280;3103;49.492;8.474;2022-08-19T07:57:56;100247.25;;;25.05;52.49
6144;BME280;3103;49.492;8.474;2022-08-19T08:00:23;100239.22;;;25.00;52.58
6144;BME280;3103;49.492;8.474;2022-08-19T08:02:51;100237.59;;;24.99;52.74
6144;BME280;3103;49.492;8.474;2022-08-19T08:05:20;100252.22;;;24.91;52.60
6144;BME280;3103;49.492;8.474;2022-08-19T08:08:13;100245.00;;;24.86;53.06
6144;BME280;3103;49.492;8.474;2022-08-19T08:10:59;100244.78;;;24.79;53.13
6144;BME280;3103;49.492;8.474;2022-08-19T08:13:27;100240.13;;;24.59;53.94
6144;BME280;3103;49.492;8.474;2022-08-19T08:15:55;100230.69;;;24.81;53.00
6144;BME280;3103;49.492;8.474;2022-08-19T08:18:23;100246.72;;;24.91;52.76
6144;BME280;3103;49.492;8.474;2022-08-19T08:20:54;100233.59;;;24.97;52.26
6144;BME280;3103;49.492;8.474;2022-08-19T08:23:21;100235.69;;;25.12;52.43
6144;BME280;3103;49.492;8.474;2022-08-19T08:25:49;100237.09;;;25.42;51.38
6144;BME280;3103;49.492;8.474;2022-08-19T08:28:17;100231.84;;;25.50;51.40
6144;BME280;3103;49.492;8.474;2022-08-19T08:30:45;100238.94;;;25.63;50.60
6144;BME280;3103;49.492;8.474;2022-08-19T08:33:19;100240.53;;;25.88;49.75
6144;BME280;3103;49.492;8.474;2022-08-19T08:36:09;100234.22;;;25.75;50.22
6144;BME280;3103;49.492;8.474;2022-08-19T08:38:37;100239.28;;;25.86;49.66
6144;BME280;3103;49.492;8.474;2022-08-19T08:41:16;100250.38;;;25.89;48.91
6144;BME280;3103;49.492;8.474;2022-08-19T08:43:50;100249.25;;;25.90;48.93
6144;BME280;3103;49.492;8.474;2022-08-19T08:46:27;100240.78;;;25.83;48.40
6144;BME280;3103;49.492;8.474;2022-08-19T08:49:09;100237.28;;;26.11;48.37
6144;BME280;3103;49.492;8.474;2022-08-19T08:51:50;100243.44;;;26.20;47.98
6144;BME280;3103;49.492;8.474;2022-08-19T08:54:32;100244.78;;;26.26;47.96
6144;BME280;3103;49.492;8.474;2022-08-19T08:57:04;100242.94;;;26.30;47.69
6144;BME280;3103;49.492;8.474;2022-08-19T08:59:36;100240.97;;;26.30;47.91
6144;BME280;3103;49.492;8.474;2022-08-19T09:02:05;100251.81;;;26.23;48.25
6144;BME280;3103;49.492;8.474;2022-08-19T09:04:34;100251.44;;;26.25;48.36
6144;BME280;3103;49.492;8.474;2022-08-19T09:10:20;100244.53;;;26.31;48.43
6144;BME280;3103;49.492;8.474;2022-08-19T09:12:58;100244.34;;;26.36;48.34
6144;BME280;3103;49.492;8.474;2022-08-19T09:15:39;100238.53;;;26.53;47.27
6144;BME280;3103;49.492;8.474;2022-08-19T09:18:08;100234.91;;;26.37;46.98
6144;BME280;3103;49.492;8.474;2022-08-19T09:20:40;100243.44;;;26.20;47.58
6144;BME280;3103;49.492;8.474;2022-08-19T09:23:08;100241.88;;;26.07;47.99
6144;BME280;3103;49.492;8.474;2022-08-19T09:25:37;100232.38;;;26.04;47.67
6144;BME280;3103;49.492;8.474;2022-08-19T09:28:04;100247.94;;;26.12;47.89
6144;BME280;3103;49.492;8.474;2022-08-19T09:30:39;100241.09;;;26.34;47.40
6144;BME280;3103;49.492;8.474;2022-08-19T09:33:07;100243.81;;;26.18;48.14
6144;BME280;3103;49.492;8.474;2022-08-19T09:35:33;100238.72;;;26.32;48.01
6144;BME280;3103;49.492;8.474;2022-08-19T09:38:18;100234.06;;;26.09;48.43
6144;BME280;3103;49.492;8.474;2022-08-19T09:40:45;100238.88;;;26.12;48.36
6144;BME280;3103;49.492;8.474;2022-08-19T09:43:11;100241.44;;;26.04;48.54
6144;BME280;3103;49.492;8.474;2022-08-19T09:45:39;100241.81;;;25.91;48.95
6144;BME280;3103;49.492;8.474;2022-08-19T09:48:06;100237.66;;;25.97;48.46
6144;BME280;3103;49.492;8.474;2022-08-19T09:50:35;100236.84;;;25.96;48.88
6144;BME280;3103;49.492;8.474;2022-08-19T09:53:18;100240.06;;;25.98;48.78
6144;BME280;3103;49.492;8.474;2022-08-19T09:55:45;100244.31;;;25.96;49.17
6144;BME280;3103;49.492;8.474;2022-08-19T09:58:11;100234.78;;;26.33;47.43
6144;BME280;3103;49.492;8.474;2022-08-19T10:00:38;100237.38;;;26.54;46.80
6144;BME280;3103;49.492;8.474;2022-08-19T10:03:05;100232.38;;;26.32;47.10
6144;BME280;3103;49.492;8.474;2022-08-19T10:05:32;100230.75;;;26.31;47.10
6144;BME280;3103;49.492;8.474;2022-08-19T10:08:23;100243.28;;;26.28;47.30
6144;BME280;3103;49.492;8.474;2022-08-19T10:10:53;100237.41;;;26.42;46.83
6144;BME280;3103;49.492;8.474;2022-08-19T10:13:24;100237.66;;;26.65;46.48
6144;BME280;3103;49.492;8.474;2022-08-19T10:15:55;100244.44;;;26.68;44.91
6144;BME280;3103;49.492;8.474;2022-08-19T10:18:24;100239.66;;;26.80;44.95
6144;BME280;3103;49.492;8.474;2022-08-19T10:20:52;100236.66;;;27.01;44.31
6144;BME280;3103;49.492;8.474;2022-08-19T10:23:20;100237.16;;;27.03;44.08
6144;BME280;3103;49.492;8.474;2022-08-19T10:25:48;100237.66;;;27.09;44.17
6144;BME280;3103;49.492;8.474;2022-08-19T10:28:16;100231.00;;;27.26;44.21
6144;BME280;3103;49.492;8.474;2022-08-19T10:30:45;100235.63;;;27.06;44.96
6144;BME280;3103;49.492;8.474;2022-08-19T10:33:13;100240.91;;;26.83;45.52
6144;BME280;3103;49.492;8.474;2022-08-19T10:36:04;100233.09;;;26.57;46.16
6144;BME280;3103;49.492;8.474;2022-08-19T10:38:31;100233.81;;;26.54;46.42
6144;BME280;3103;49.492;8.474;2022-08-19T10:41:09;100233.31;;;26.64;46.19
6144;BME280;3103;49.492;8.474;2022-08-19T10:43:37;100232.28;;;26.84;45.84
6144;BME280;3103;49.492;8.474;2022-08-19T10:46:06;100231.34;;;27.08;45.61
6144;BME280;3103;49.492;8.474;2022-08-19T10:48:43;100236.16;;;27.11;45.09
6144;BME280;3103;49.492;8.474;2022-08-19T10:51:11;100222.19;;;27.04;45.22
6144;BME280;3103;49.492;8.474;2022-08-19T10:53:58;100215.41;;;27.02;44.77
6144;BME280;3103;49.492;8.474;2022-08-19T10:56:26;100207.50;;;27.16;44.14
6144;BME280;3103;49.492;8.474;2022-08-19T10:59:12;100205.22;;;27.18;44.09
6144;BME280;3103;49.492;8.474;2022-08-19T11:01:43;100216.38;;;27.41;43.32
6144;BME280;3103;49.492;8.474;2022-08-19T11:04:10;100215.78;;;27.47;43.01
6144;BME280;3103;49.492;8.474;2022-08-19T11:06:37;100204.75;;;27.32;43.29
6144;BME280;3103;49.492;8.474;2022-08-19T11:09:05;100210.53;;;27.27;44.03
6144;BME280;3103;49.492;8.474;2022-08-19T11:11:32;100213.63;;;27.41;42.86
6144;BME280;3103;49.492;8.474;2022-08-19T11:14:10;100208.19;;;27.44;42.23
6144;BME280;3103;49.492;8.474;2022-08-19T11:16:38;100199.00;;;27.56;42.05
6144;BME280;3103;49.492;8.474;2022-08-19T11:19:07;100188.25;;;27.51;41.95
6144;BME280;3103;49.492;8.474;2022-08-19T11:21:40;100182.88;;;27.58;41.88
6144;BME280;3103;49.492;8.474;2022-08-19T11:24:11;100181.88;;;27.47;41.45
6144;BME280;3103;49.492;8.474;2022-08-19T11:26:39;100163.88;;;27.53;41.45
6144;BME280;3103;49.492;8.474;2022-08-19T11:29:07;100167.22;;;27.62;40.96
6144;BME280;3103;49.492;8.474;2022-08-19T11:31:40;100165.03;;;27.52;40.51
6144;BME280;3103;49.492;8.474;2022-08-19T11:34:09;100157.09;;;27.66;39.42
6144;BME280;3103;49.492;8.474;2022-08-19T11:36:38;100167.47;;;27.38;40.34
6144;BME280;3103;49.492;8.474;2022-08-19T11:39:07;100157.94;;;27.35;40.58
6144;BME280;3103;49.492;8.474;2022-08-19T11:41:34;100163.06;;;27.52;40.41
6144;BME280;3103;49.492;8.474;2022-08-19T11:44:07;100155.66;;;27.57;41.17
6144;BME280;3103;49.492;8.474;2022-08-19T11:46:36;100155.69;;;27.41;41.47
6144;BME280;3103;49.492;8.474;2022-08-19T11:49:05;100166.59;;;27.34;41.47
6144;BME280;3103;49.492;8.474;2022-08-19T11:51:40;100173.81;;;27.23;41.96
6144;BME280;3103;49.492;8.474;2022-08-19T11:54:10;100159.34;;;27.45;40.55
6144;BME280;3103;49.492;8.474;2022-08-19T11:56:38;100167.06;;;27.55;39.40
6144;BME280;3103;49.492;8.474;2022-08-19T11:59:08;100167.41;;;27.54;38.77
6144;BME280;3103;49.492;8.474;2022-08-19T12:01:40;100162.13;;;27.45;38.67
6144;BME280;3103;49.492;8.474;2022-08-19T12:04:09;100160.41;;;27.40;39.24
6144;BME280;3103;49.492;8.474;2022-08-19T12:06:37;100157.72;;;27.44;38.95
6144;BME280;3103;49.492;8.474;2022-08-19T12:09:06;100171.41;;;27.56;38.86
6144;BME280;3103;49.492;8.474;2022-08-19T12:11:35;100168.66;;;27.56;38.16
6144;BME280;3103;49.492;8.474;2022-08-19T12:14:03;100163.66;;;27.62;36.89
6144;BME280;3103;49.492;8.474;2022-08-19T12:16:30;100159.41;;;27.64;37.75
6144;BME280;3103;49.492;8.474;2022-08-19T12:18:59;100171.31;;;27.68;37.93
6144;BME280;3103;49.492;8.474;2022-08-19T12:21:31;100153.59;;;27.69;36.99
6144;BME280;3103;49.492;8.474;2022-08-19T12:23:59;100154.22;;;27.78;37.10
6144;BME280;3103;49.492;8.474;2022-08-19T12:26:28;100165.28;;;27.63;37.77
6144;BME280;3103;49.492;8.474;2022-08-19T12:28:55;100166.53;;;27.65;37.87
6144;BME280;3103;49.492;8.474;2022-08-19T12:31:22;100171.63;;;27.47;38.46
6144;BME280;3103;49.492;8.474;2022-08-19T12:33:49;100164.25;;;27.36;37.92
6144;BME280;3103;49.492;8.474;2022-08-19T12:36:16;100162.91;;;27.45;36.72
6144;BME280;3103;49.492;8.474;2022-08-19T12:38:44;100168.13;;;27.66;36.14
6144;BME280;3103;49.492;8.474;2022-08-19T12:41:14;100164.28;;;27.71;35.81
6144;BME280;3103;49.492;8.474;2022-08-19T12:43:41;100162.06;;;27.76;35.25
6144;BME280;3103;49.492;8.474;2022-08-19T12:46:09;100161.97;;;27.57;36.25
6144;BME280;3103;49.492;8.474;2022-08-19T12:48:37;100160.22;;;27.49;36.50
6144;BME280;3103;49.492;8.474;2022-08-19T12:51:11;100164.59;;;27.50;36.24
6144;BME280;3103;49.492;8.474;2022-08-19T12:53:39;100169.72;;;27.67;35.50
6144;BME280;3103;49.492;8.474;2022-08-19T12:56:10;100173.59;;;27.82;34.58
6144;BME280;3103;49.492;8.474;2022-08-19T12:58:39;100170.47;;;27.84;34.70
6144;BME280;3103;49.492;8.474;2022-08-19T13:01:13;100166.69;;;27.72;35.04
6144;BME280;3103;49.492;8.474;2022-08-19T13:03:45;100169.00;;;27.70;35.27
6144;BME280;3103;49.492;8.474;2022-08-19T13:06:12;100179.66;;;27.72;35.38
6144;BME280;3103;49.492;8.474;2022-08-19T13:08:44;100177.47;;;27.62;34.50
6144;BME280;3103;49.492;8.474;2022-08-19T13:11:15;100172.56;;;27.55;35.50
6144;BME280;3103;49.492;8.474;2022-08-19T13:13:45;100174.97;;;27.57;35.21
6144;BME280;3103;49.492;8.474;2022-08-19T13:16:13;100173.56;;;27.63;34.69
6144;BME280;3103;49.492;8.474;2022-08-19T13:18:42;100182.78;;;27.70;34.57
6144;BME280;3103;49.492;8.474;2022-08-19T13:21:10;100177.09;;;27.63;34.94
6144;BME280;3103;49.492;8.474;2022-08-19T13:23:40;100170.59;;;27.71;34.30
6144;BME280;3103;49.492;8.474;2022-08-19T13:26:10;100170.94;;;28.05;33.15
6144;BME280;3103;49.492;8.474;2022-08-19T13:28:38;100175.25;;;27.87;33.59
6144;BME280;3103;49.492;8.474;2022-08-19T13:31:26;100177.03;;;27.95;33.42
6144;BME280;3103;49.492;8.474;2022-08-19T13:34:13;100174.25;;;27.95;33.40
6144;BME280;3103;49.492;8.474;2022-08-19T13:36:40;100170.34;;;27.96;33.61